createdAt,value
2022-09-21T00:01:17.319Z,1.00
2022-09-21T00:03:45.510Z,0.90
2022-09-21T00:06:15.393Z,0.80
2022-09-21T00:08:43.401Z,0.90
2022-09-21T00:11:25.090Z,1.43
2022-09-21T00:14:05.574Z,1.30
2022-09-21T00:16:33.008Z,1.20
2022-09-21T00:19:00.991Z,1.30
2022-09-21T00:21:28.448Z,1.37
2022-09-21T00:23:55.721Z,1.30
2022-09-21T00:26:25.029Z,1.30
2022-09-21T00:28:58.194Z,1.20
2022-09-21T00:31:26.202Z,1.43
2022-09-21T00:33:53.645Z,1.60
2022-09-21T00:36:23.791Z,1.77
2022-09-21T00:38:53.330Z,1.30
2022-09-21T00:41:20.830Z,1.87
2022-09-21T00:44:20.488Z,1.70
2022-09-21T00:46:49.554Z,1.27
2022-09-21T00:49:17.834Z,1.27
2022-09-21T00:51:46.612Z,1.40
2022-09-21T00:54:20.570Z,1.40
2022-09-21T00:56:48.133Z,1.40
2022-09-21T00:59:21.412Z,1.00
2022-09-21T01:01:49.204Z,1.50
2022-09-21T01:04:19.050Z,1.70
2022-09-21T01:06:48.022Z,1.50
2022-09-21T01:09:16.754Z,1.30
2022-09-21T01:12:29.552Z,1.53
2022-09-21T01:15:15.585Z,1.20
2022-09-21T01:18:08.655Z,1.20
2022-09-21T01:21:06.730Z,1.67
2022-09-21T01:23:55.543Z,2.10
2022-09-21T01:26:47.462Z,1.97
2022-09-21T01:29:34.610Z,1.70
2022-09-21T01:32:20.947Z,1.87
2022-09-21T01:34:51.206Z,2.07
2022-09-21T01:37:23.486Z,1.93
2022-09-21T01:39:55.889Z,2.20
2022-09-21T01:42:25.673Z,2.23
2022-09-21T01:44:53.058Z,2.17
2022-09-21T01:47:20.783Z,2.60
2022-09-21T01:49:54.770Z,2.53
2022-09-21T01:52:48.767Z,2.10
2022-09-21T01:55:41.264Z,2.30
2022-09-21T01:58:40.448Z,2.50
2022-09-21T02:01:12.136Z,2.40
2022-09-21T02:03:54.425Z,2.50
2022-09-21T02:06:21.623Z,2.60
2022-09-21T02:08:48.858Z,2.97
2022-09-21T02:11:15.923Z,2.90
2022-09-21T02:13:49.832Z,2.63
2022-09-21T02:16:35.608Z,2.53
2022-09-21T02:19:14.398Z,2.30
2022-09-21T02:21:57.405Z,3.20
2022-09-21T02:24:43.837Z,2.90
2022-09-21T02:27:30.910Z,2.30
2022-09-21T02:30:13.626Z,3.20
2022-09-21T02:33:01.478Z,2.37
2022-09-21T02:35:31.449Z,2.70
2022-09-21T02:38:06.162Z,2.70
2022-09-21T02:40:49.214Z,2.40
2022-09-21T02:43:27.850Z,2.77
2022-09-21T02:46:04.398Z,2.20
2022-09-21T02:48:43.290Z,2.17
2022-09-21T02:51:14.211Z,2.10
2022-09-21T02:53:42.135Z,2.30
2022-09-21T02:56:11.602Z,2.57
2022-09-21T02:58:43.721Z,3.20
2022-09-21T03:01:12.659Z,3.03
2022-09-21T03:03:39.535Z,2.40
2022-09-21T03:06:06.731Z,2.80
2022-09-21T03:08:33.687Z,3.30
2022-09-21T03:11:01.046Z,2.60
2022-09-21T03:13:27.924Z,3.10
2022-09-21T03:16:04.451Z,2.90
2022-09-21T03:18:31.970Z,3.30
2022-09-21T03:20:59.290Z,3.00
2022-09-21T03:23:26.554Z,3.10
2022-09-21T03:25:54.719Z,2.97
2022-09-21T03:28:22.620Z,3.03
2022-09-21T03:30:51.528Z,2.93
2022-09-21T03:33:21.314Z,3.20
2022-09-21T03:35:48.961Z,3.53
2022-09-21T03:38:17.003Z,3.10
2022-09-21T03:40:48.360Z,3.43
2022-09-21T03:43:16.223Z,3.70
2022-09-21T03:45:43.524Z,4.33
2022-09-21T03:48:12.199Z,3.93
2022-09-21T03:50:39.650Z,3.87
2022-09-21T03:53:07.333Z,4.23
2022-09-21T03:55:34.871Z,3.70
2022-09-21T03:58:02.047Z,3.97
2022-09-21T04:00:29.600Z,3.77
2022-09-21T04:02:56.581Z,3.70
2022-09-21T04:05:23.572Z,4.23
2022-09-21T04:07:50.845Z,3.93
2022-09-21T04:10:21.424Z,3.63
2022-09-21T04:12:48.575Z,4.13
2022-09-21T04:15:19.732Z,3.83
2022-09-21T04:17:51.087Z,3.80
2022-09-21T04:20:18.084Z,4.40
2022-09-21T04:22:47.270Z,3.30
2022-09-21T04:25:15.770Z,3.90
2022-09-21T04:27:43.061Z,4.30
2022-09-21T04:30:15.877Z,3.67
2022-09-21T04:32:42.783Z,4.10
2022-09-21T04:35:10.573Z,4.17
2022-09-21T04:37:37.749Z,3.93
2022-09-21T04:40:05.803Z,4.03
2022-09-21T04:42:32.772Z,4.40
2022-09-21T04:45:00.966Z,4.10
2022-09-21T04:47:30.660Z,4.00
2022-09-21T04:49:57.872Z,4.67
2022-09-21T04:52:24.979Z,4.27
2022-09-21T04:54:52.107Z,4.03
2022-09-21T04:57:18.979Z,4.00
2022-09-21T04:59:45.905Z,4.33
2022-09-21T05:02:12.765Z,4.50
2022-09-21T05:04:39.647Z,4.50
2022-09-21T05:07:06.694Z,4.90
2022-09-21T05:09:51.975Z,4.10
2022-09-21T05:12:18.886Z,4.33
2022-09-21T05:14:45.777Z,4.77
2022-09-21T05:17:13.427Z,4.77
2022-09-21T05:19:41.169Z,4.57
2022-09-21T05:22:08.227Z,5.30
2022-09-21T05:24:35.289Z,5.23
2022-09-21T05:27:02.251Z,5.33
2022-09-21T05:29:29.484Z,5.53
2022-09-21T05:32:03.783Z,5.00
2022-09-21T05:34:39.611Z,5.00
2022-09-21T05:37:27.706Z,5.50
2022-09-21T05:39:54.848Z,5.83
2022-09-21T05:42:22.053Z,4.53
2022-09-21T05:44:50.732Z,5.70
2022-09-21T05:47:55.702Z,5.10
2022-09-21T05:50:34.910Z,5.17
2022-09-21T05:53:53.088Z,5.60
2022-09-21T05:56:23.247Z,6.00
2022-09-21T05:58:59.744Z,5.97
2022-09-21T06:02:00.299Z,5.27
2022-09-21T06:04:27.576Z,4.50
2022-09-21T06:06:54.591Z,5.43
2022-09-21T06:09:21.528Z,4.77
2022-09-21T06:11:49.689Z,4.93
2022-09-21T06:14:16.783Z,5.53
2022-09-21T06:16:43.774Z,5.73
2022-09-21T06:19:14.167Z,5.23
2022-09-21T06:21:41.064Z,6.37
2022-09-21T06:24:08.258Z,5.60
2022-09-21T06:26:35.200Z,5.83
2022-09-21T06:29:02.106Z,5.90
2022-09-21T06:31:29.096Z,5.83
2022-09-21T06:33:59.218Z,4.90
2022-09-21T06:36:26.331Z,4.93
2022-09-21T06:38:55.371Z,5.43
2022-09-21T06:41:22.338Z,5.10
2022-09-21T06:43:55.400Z,5.10
2022-09-21T06:46:22.394Z,4.73
2022-09-21T06:48:49.894Z,4.33
2022-09-21T06:51:16.860Z,4.67
2022-09-21T06:53:43.780Z,4.30
2022-09-21T06:56:14.057Z,4.77
2022-09-21T06:58:44.104Z,4.77
2022-09-21T07:01:14.270Z,4.20
2022-09-21T07:03:44.411Z,4.40
2022-09-21T07:06:14.130Z,3.73
2022-09-21T07:11:41.955Z,3.80
2022-09-21T07:14:10.948Z,4.33
2022-09-21T07:16:41.151Z,4.27
2022-09-21T07:19:11.965Z,4.30
2022-09-21T07:21:42.181Z,4.33
2022-09-21T07:24:12.532Z,3.92
2022-09-21T07:26:40.830Z,4.32
2022-09-21T07:29:10.881Z,3.90
2022-09-21T07:31:38.494Z,3.42
2022-09-21T07:34:07.500Z,3.25
2022-09-21T07:36:35.551Z,3.85
2022-09-21T07:39:05.054Z,3.20
2022-09-21T07:41:35.399Z,3.78
2022-09-21T07:44:04.052Z,3.15
2022-09-21T07:46:34.415Z,3.53
2022-09-21T07:49:06.176Z,3.35
2022-09-21T07:51:33.108Z,2.80
2022-09-21T07:54:03.135Z,2.53
2022-09-21T07:56:33.200Z,2.42
2022-09-21T07:59:08.178Z,2.67
2022-09-21T08:01:38.539Z,2.50
2022-09-21T08:04:07.846Z,2.13
2022-09-21T08:06:40.128Z,2.40
2022-09-21T08:09:13.448Z,2.63
2022-09-21T08:11:45.232Z,2.42
2022-09-21T08:14:25.202Z,2.20
2022-09-21T08:16:53.062Z,2.17
2022-09-21T08:19:25.903Z,1.83
2022-09-21T08:21:57.141Z,1.90
2022-09-21T08:24:27.040Z,1.75
2022-09-21T08:26:56.136Z,2.08
2022-09-21T08:29:25.494Z,1.88
2022-09-21T08:31:55.783Z,2.03
2022-09-21T08:34:29.984Z,2.20
2022-09-21T08:37:00.033Z,1.83
2022-09-21T08:39:30.135Z,2.17
2022-09-21T08:42:25.546Z,1.77
2022-09-21T08:45:00.403Z,1.80
2022-09-21T08:47:50.116Z,1.52
2022-09-21T08:50:28.759Z,2.28
2022-09-21T08:53:04.935Z,1.85
2022-09-21T08:55:32.031Z,1.70
2022-09-21T08:58:00.576Z,1.95
2022-09-21T09:00:38.176Z,1.80
2022-09-21T09:03:18.999Z,1.67
2022-09-21T09:06:07.917Z,1.42
2022-09-21T09:09:02.370Z,2.17
2022-09-21T09:11:45.064Z,1.40
2022-09-21T09:14:36.066Z,1.90
2022-09-21T09:17:22.068Z,1.50
2022-09-21T09:19:56.569Z,1.35
2022-09-21T09:22:30.587Z,2.03
2022-09-21T09:25:05.648Z,2.13
2022-09-21T09:27:40.495Z,2.17
2022-09-21T09:30:17.447Z,2.30
2022-09-21T09:32:56.347Z,1.92
2022-09-21T09:35:36.101Z,1.30
2022-09-21T09:38:27.984Z,1.42
2022-09-21T09:41:22.975Z,1.45
2022-09-21T09:44:28.185Z,1.23
2022-09-21T09:47:21.799Z,1.25
2022-09-21T09:50:13.416Z,1.70
2022-09-21T09:52:42.642Z,1.85
2022-09-21T09:55:20.314Z,2.15
2022-09-21T09:57:49.533Z,2.40
2022-09-21T10:00:21.751Z,2.63
2022-09-21T10:02:59.328Z,2.20
2022-09-21T10:05:33.076Z,2.50
2022-09-21T10:08:03.098Z,1.95
2022-09-21T10:10:40.754Z,1.80
2022-09-21T10:13:09.583Z,2.40
2022-09-21T10:15:45.395Z,2.10
2022-09-21T10:18:46.636Z,2.47
2022-09-21T10:21:33.308Z,3.58
2022-09-21T10:24:23.605Z,2.20
2022-09-21T10:26:54.823Z,1.50
2022-09-21T10:29:44.302Z,2.00
2022-09-21T10:32:26.527Z,1.80
2022-09-21T10:35:07.248Z,1.85
2022-09-21T10:37:40.399Z,1.70
2022-09-21T10:40:30.984Z,2.08
2022-09-21T10:43:00.763Z,2.22
2022-09-21T10:45:30.439Z,1.77
2022-09-21T10:48:06.335Z,1.92
2022-09-21T10:50:37.507Z,1.80
2022-09-21T10:53:10.570Z,1.75
2022-09-21T10:56:17.366Z,1.85
2022-09-21T10:59:19.106Z,1.90
2022-09-21T11:01:48.730Z,1.55
2022-09-21T11:04:45.975Z,1.75
2022-09-21T11:07:25.440Z,1.20
2022-09-21T11:10:08.601Z,1.60
2022-09-21T11:13:00.570Z,1.80
2022-09-21T11:16:00.784Z,1.80
2022-09-21T11:18:58.787Z,1.60
2022-09-21T11:21:40.864Z,1.45
2022-09-21T11:24:29.214Z,1.30
2022-09-21T11:27:16.739Z,1.67
2022-09-21T11:29:49.480Z,1.10
2022-09-21T11:32:37.462Z,1.70
2022-09-21T11:35:27.050Z,1.73
2022-09-21T11:38:10.056Z,1.52
2022-09-21T11:41:20.991Z,1.35
2022-09-21T11:44:19.271Z,1.25
2022-09-21T11:47:03.873Z,0.88
2022-09-21T11:50:07.880Z,1.33
2022-09-21T11:53:28.985Z,1.40
2022-09-21T11:56:04.775Z,1.40
2022-09-21T11:59:07.134Z,1.50
2022-09-21T12:01:56.942Z,1.20
2022-09-21T12:04:36.870Z,1.30
2022-09-21T12:07:27.350Z,1.45
2022-09-21T12:10:11.957Z,1.60
2022-09-21T12:13:13.316Z,1.73
2022-09-21T12:15:49.639Z,1.27
2022-09-21T12:18:33.680Z,1.30
2022-09-21T12:21:11.691Z,1.52
2022-09-21T12:23:59.674Z,1.42
2022-09-21T12:26:39.188Z,1.20
2022-09-21T12:29:38.170Z,1.50
2022-09-21T12:32:25.627Z,1.33
2022-09-21T12:34:57.558Z,1.45
2022-09-21T12:37:45.145Z,1.52
2022-09-21T12:40:38.571Z,1.38
2022-09-21T12:43:21.059Z,1.70
2022-09-21T12:46:18.367Z,1.50
2022-09-21T12:48:45.732Z,1.60
2022-09-21T12:51:33.619Z,1.92
2022-09-21T12:54:11.895Z,1.40
2022-09-21T12:56:50.020Z,1.47
2022-09-21T12:59:46.343Z,1.60
2022-09-21T13:02:40.508Z,2.03
2022-09-21T13:05:16.818Z,1.20
2022-09-21T13:08:07.896Z,1.30
2022-09-21T13:11:01.212Z,1.50
2022-09-21T13:13:38.747Z,1.80
2022-09-21T13:16:25.847Z,1.45
2022-09-21T13:19:02.148Z,1.40
2022-09-21T13:21:33.576Z,1.10
2022-09-21T13:24:04.384Z,1.30
2022-09-21T13:27:08.158Z,1.50
2022-09-21T13:29:41.842Z,1.38
2022-09-21T13:32:14.112Z,1.55
2022-09-21T13:34:44.487Z,0.98
2022-09-21T13:37:15.175Z,1.35
2022-09-21T13:39:58.076Z,1.50
2022-09-21T13:42:33.184Z,1.50
2022-09-21T13:45:12.771Z,1.60
2022-09-21T13:47:43.096Z,1.48
2022-09-21T13:50:38.753Z,1.58
2022-09-21T13:53:22.611Z,1.42
2022-09-21T13:56:00.069Z,1.38
2022-09-21T13:58:34.043Z,1.30
2022-09-21T14:01:45.041Z,1.45
2022-09-21T14:04:28.610Z,1.40
2022-09-21T14:06:57.992Z,1.48
2022-09-21T14:09:31.871Z,1.20
2022-09-21T14:12:06.553Z,1.20
2022-09-21T14:14:40.039Z,1.20
2022-09-21T14:17:35.334Z,0.80
2022-09-21T14:20:07.399Z,1.05
2022-09-21T14:22:39.187Z,1.40
2022-09-21T14:25:27.966Z,1.20
2022-09-21T14:28:02.768Z,1.23
2022-09-21T14:30:34.486Z,1.33
2022-09-21T14:33:10.603Z,1.27
2022-09-21T14:35:41.456Z,1.00
2022-09-21T14:38:31.641Z,1.13
2022-09-21T14:41:07.637Z,1.20
2022-09-21T14:43:39.866Z,1.25
2022-09-21T14:46:54.100Z,1.45
2022-09-21T14:49:39.690Z,1.25
2022-09-21T14:52:41.067Z,1.40
2022-09-21T14:55:46.284Z,1.23
2022-09-21T14:58:14.401Z,3.47
2022-09-21T15:00:48.848Z,9.03
2022-09-21T15:03:40.168Z,5.93
2022-09-21T15:06:39.838Z,20.63
2022-09-21T15:10:09.999Z,9.43
2022-09-21T15:12:47.689Z,14.13
2022-09-21T15:15:27.195Z,12.33
2022-09-21T15:18:02.669Z,5.30
2022-09-21T15:20:32.189Z,2.40
2022-09-21T15:23:00.530Z,2.30
2022-09-21T15:25:32.181Z,1.20
2022-09-21T15:28:00.487Z,1.23
2022-09-21T15:30:45.923Z,1.23
2022-09-21T15:33:14.164Z,1.20
2022-09-21T15:35:46.863Z,1.70
2022-09-21T15:38:36.726Z,1.07
2022-09-21T15:41:11.479Z,1.00
2022-09-21T15:43:40.839Z,1.20
2022-09-21T15:46:12.705Z,0.80
2022-09-21T15:48:47.229Z,0.70
2022-09-21T15:51:29.856Z,1.23
2022-09-21T15:54:23.924Z,0.90
2022-09-21T15:56:51.258Z,0.93
2022-09-21T15:59:21.155Z,0.73
2022-09-21T16:01:52.931Z,1.03
2022-09-21T16:04:25.211Z,0.90
2022-09-21T16:07:24.603Z,0.67
2022-09-21T16:09:55.124Z,0.80
2022-09-21T16:12:43.908Z,0.80
2022-09-21T16:15:13.846Z,1.27
2022-09-21T16:17:56.143Z,1.50
2022-09-21T16:20:36.926Z,2.13
2022-09-21T16:23:13.257Z,1.17
2022-09-21T16:25:40.902Z,1.10
2022-09-21T16:28:29.580Z,1.03
2022-09-21T16:30:59.045Z,0.87
2022-09-21T16:33:38.314Z,3.93
2022-09-21T16:36:27.563Z,1.63
2022-09-21T16:38:56.646Z,1.20
2022-09-21T16:41:35.227Z,0.93
2022-09-21T16:44:05.448Z,1.83
2022-09-21T16:46:36.270Z,0.73
2022-09-21T16:49:15.370Z,0.90
2022-09-21T16:51:47.218Z,0.77
2022-09-21T16:54:18.952Z,1.80
2022-09-21T16:56:46.562Z,1.67
2022-09-21T16:59:23.212Z,0.93
2022-09-21T17:01:57.797Z,1.00
2022-09-21T17:04:33.181Z,0.80
2022-09-21T17:07:00.890Z,0.90
2022-09-21T17:09:30.056Z,1.80
2022-09-21T17:12:01.427Z,1.70
2022-09-21T17:14:36.672Z,0.80
2022-09-21T17:17:36.167Z,1.00
2022-09-21T17:20:18.931Z,0.70
2022-09-21T17:22:49.166Z,0.90
2022-09-21T17:25:16.067Z,0.80
2022-09-21T17:27:45.206Z,0.70
2022-09-21T17:30:14.220Z,0.70
2022-09-21T17:32:42.710Z,0.90
2022-09-21T17:35:32.982Z,1.20
2022-09-21T17:38:00.658Z,0.97
2022-09-21T17:40:28.053Z,0.83
2022-09-21T17:43:06.496Z,0.93
2022-09-21T17:45:43.269Z,0.53
2022-09-21T17:48:19.786Z,0.70
2022-09-21T17:50:47.171Z,0.83
2022-09-21T17:53:32.775Z,2.00
2022-09-21T17:56:15.183Z,1.17
2022-09-21T17:58:57.120Z,0.90
2022-09-21T18:01:29.890Z,1.13
2022-09-21T18:03:57.665Z,1.67
2022-09-21T18:06:26.076Z,1.77
2022-09-21T18:08:54.175Z,1.60
2022-09-21T18:11:37.215Z,1.07
2022-09-21T18:14:34.972Z,1.00
2022-09-21T18:17:25.248Z,1.00
2022-09-21T18:20:10.931Z,1.50
2022-09-21T18:22:58.802Z,2.03
2022-09-21T18:25:35.665Z,1.40
2022-09-21T18:28:31.780Z,1.33
2022-09-21T18:31:36.656Z,1.00
2022-09-21T18:34:14.074Z,1.63
2022-09-21T18:37:04.160Z,1.80
2022-09-21T18:40:03.354Z,1.90
2022-09-21T18:42:57.798Z,1.77
2022-09-21T18:45:33.033Z,1.60
2022-09-21T18:48:17.448Z,1.30
2022-09-21T18:51:05.072Z,2.67
2022-09-21T18:53:58.508Z,3.07
2022-09-21T18:56:35.664Z,1.97
2022-09-21T18:59:03.462Z,1.50
2022-09-21T19:01:33.790Z,1.83
2022-09-21T19:04:01.546Z,2.40
2022-09-21T19:06:54.961Z,3.33
2022-09-21T19:09:52.183Z,2.30
2022-09-21T19:12:55.194Z,1.80
2022-09-21T19:15:58.577Z,2.00
2022-09-21T19:18:36.258Z,1.80
2022-09-21T19:21:26.792Z,2.17
2022-09-21T19:24:14.810Z,2.27
2022-09-21T19:27:02.524Z,1.90
2022-09-21T19:29:45.029Z,2.27
2022-09-21T19:32:36.471Z,4.80
2022-09-21T19:35:17.464Z,5.40
2022-09-21T19:37:44.817Z,2.40
2022-09-21T19:40:12.045Z,1.90
2022-09-21T19:43:34.188Z,1.80
2022-09-21T19:46:20.545Z,1.10
2022-09-21T19:48:50.950Z,1.10
2022-09-21T19:51:24.238Z,1.90
2022-09-21T19:54:15.261Z,1.80
2022-09-21T19:57:09.170Z,1.53
2022-09-21T19:59:45.490Z,2.10
2022-09-21T20:02:12.372Z,1.60
2022-09-21T20:04:42.662Z,1.70
2022-09-21T20:07:51.698Z,2.00
2022-09-21T20:10:30.960Z,1.90
2022-09-21T20:13:20.963Z,1.60
2022-09-21T20:16:08.792Z,1.90
2022-09-21T20:18:38.911Z,2.07
2022-09-21T20:21:13.537Z,2.00
2022-09-21T20:23:41.093Z,2.17
2022-09-21T20:26:23.958Z,1.87
2022-09-21T20:28:55.014Z,2.00
2022-09-21T20:31:24.340Z,1.60
2022-09-21T20:33:51.311Z,2.23
2022-09-21T20:36:18.350Z,1.87
2022-09-21T20:38:45.308Z,2.80
2022-09-21T20:41:13.454Z,2.77
2022-09-21T20:43:40.602Z,2.63
2022-09-21T20:46:09.712Z,2.20
2022-09-21T20:48:38.471Z,2.10
2022-09-21T20:51:06.329Z,2.67
2022-09-21T20:53:36.246Z,2.57
2022-09-21T20:56:03.773Z,2.50
2022-09-21T20:58:31.201Z,2.00
2022-09-21T21:01:08.832Z,1.83
2022-09-21T21:03:35.886Z,2.40
2022-09-21T21:06:18.843Z,2.13
2022-09-21T21:08:46.319Z,1.80
2022-09-21T21:11:14.483Z,2.00
2022-09-21T21:13:41.644Z,2.17
2022-09-21T21:16:12.048Z,2.10
2022-09-21T21:18:42.820Z,2.33
2022-09-21T21:21:09.841Z,2.33
2022-09-21T21:23:55.130Z,1.83
2022-09-21T21:26:29.483Z,1.97
2022-09-21T21:29:09.103Z,1.87
2022-09-21T21:31:36.186Z,2.00
2022-09-21T21:34:03.170Z,1.90
2022-09-21T21:36:30.056Z,2.10
2022-09-21T21:38:56.983Z,2.17
2022-09-21T21:41:23.846Z,1.70
2022-09-21T21:43:51.766Z,1.73
2022-09-21T21:46:18.731Z,1.90
2022-09-21T21:48:47.050Z,1.60
2022-09-21T21:51:13.894Z,2.00
2022-09-21T21:53:40.962Z,2.00
2022-09-21T21:56:16.350Z,1.70
2022-09-21T21:58:43.920Z,2.00
2022-09-21T22:01:15.015Z,1.50
2022-09-21T22:03:42.283Z,1.83
2022-09-21T22:06:10.572Z,1.90
2022-09-21T22:08:38.987Z,2.13
2022-09-21T22:11:07.875Z,1.73
2022-09-21T22:13:36.991Z,2.23
2022-09-21T22:16:24.280Z,2.00
2022-09-21T22:18:52.358Z,1.70
2022-09-21T22:21:26.268Z,1.60
2022-09-21T22:24:01.256Z,2.13
2022-09-21T22:26:29.903Z,1.77
2022-09-21T22:28:59.309Z,1.70
2022-09-21T22:31:29.198Z,1.80
2022-09-21T22:33:58.602Z,2.27
2022-09-21T22:36:28.156Z,2.23
2022-09-21T22:38:55.661Z,2.00
2022-09-21T22:41:28.971Z,2.13
2022-09-21T22:43:57.641Z,1.93
2022-09-21T22:46:27.209Z,2.43
2022-09-21T22:48:54.166Z,2.07
2022-09-21T22:51:22.219Z,1.93
2022-09-21T22:53:50.750Z,2.00
2022-09-21T22:56:20.099Z,2.00
2022-09-21T22:58:49.754Z,2.33
2022-09-21T23:01:29.011Z,2.13
2022-09-21T23:03:58.775Z,1.97
2022-09-21T23:06:32.918Z,1.63
2022-09-21T23:09:02.214Z,2.03
2022-09-21T23:11:39.167Z,2.17
2022-09-21T23:14:06.379Z,1.93
2022-09-21T23:16:33.940Z,1.67
2022-09-21T23:19:01.026Z,1.93
2022-09-21T23:21:29.640Z,2.00
2022-09-21T23:23:59.929Z,2.40
2022-09-21T23:26:28.651Z,2.00
2022-09-21T23:29:00.709Z,1.70
2022-09-21T23:31:29.182Z,2.23
2022-09-21T23:34:04.137Z,2.20
2022-09-21T23:36:32.086Z,2.27
2022-09-21T23:38:59.020Z,2.07
2022-09-21T23:41:32.652Z,2.03
2022-09-21T23:43:59.769Z,2.97
2022-09-21T23:46:29.861Z,2.73
2022-09-21T23:49:00.754Z,2.00
2022-09-21T23:51:29.977Z,2.33
2022-09-21T23:53:58.059Z,2.17
2022-09-21T23:56:25.802Z,1.90
2022-09-21T23:58:53.265Z,2.27
